sensor_id;sensor_type;location;lat;lon;timestamp;temperature;humidity
47757;SHT35;22147;52.388;13.390;2023-04-24T00:01:06;10.73;85.15
47757;SHT35;22147;52.388;13.390;2023-04-24T00:03:35;10.64;85.01
47757;SHT35;22147;52.388;13.390;2023-04-24T00:06:03;10.61;85.28
47757;SHT35;22147;52.388;13.390;2023-04-24T00:08:31;10.61;85.40
47757;SHT35;22147;52.388;13.390;2023-04-24T00:11:00;10.56;85.57
47757;SHT35;22147;52.388;13.390;2023-04-24T00:13:28;10.53;85.55
47757;SHT35;22147;52.388;13.390;2023-04-24T00:15:57;10.46;85.61
47757;SHT35;22147;52.388;13.390;2023-04-24T00:18:25;10.40;85.90
47757;SHT35;22147;52.388;13.390;2023-04-24T00:20:53;10.36;86.32
47757;SHT35;22147;52.388;13.390;2023-04-24T00:23:22;10.38;86.17
47757;SHT35;22147;52.388;13.390;2023-04-24T00:25:50;10.36;86.38
47757;SHT35;22147;52.388;13.390;2023-04-24T00:28:19;10.28;86.54
47757;SHT35;22147;52.388;13.390;2023-04-24T00:30:47;10.28;86.89
47757;SHT35;22147;52.388;13.390;2023-04-24T00:33:16;10.26;86.97
47757;SHT35;22147;52.388;13.390;2023-04-24T00:35:44;10.30;86.98
47757;SHT35;22147;52.388;13.390;2023-04-24T00:38:13;10.30;87.17
47757;SHT35;22147;52.388;13.390;2023-04-24T00:40:41;10.36;87.07
47757;SHT35;22147;52.388;13.390;2023-04-24T00:43:10;10.34;87.11
47757;SHT35;22147;52.388;13.390;2023-04-24T00:45:41;10.34;87.29
47757;SHT35;22147;52.388;13.390;2023-04-24T00:48:11;10.34;87.08
47757;SHT35;22147;52.388;13.390;2023-04-24T00:50:42;10.32;87.13
47757;SHT35;22147;52.388;13.390;2023-04-24T00:53:09;10.42;87.01
47757;SHT35;22147;52.388;13.390;2023-04-24T00:55:38;10.52;86.96
47757;SHT35;22147;52.388;13.390;2023-04-24T00:58:07;10.42;86.71
47757;SHT35;22147;52.388;13.390;2023-04-24T01:00:38;10.28;87.22
47757;SHT35;22147;52.388;13.390;2023-04-24T01:03:09;10.22;87.39
47757;SHT35;22147;52.388;13.390;2023-04-24T01:05:39;10.20;87.62
47757;SHT35;22147;52.388;13.390;2023-04-24T01:08:08;10.15;87.74
47757;SHT35;22147;52.388;13.390;2023-04-24T01:10:41;10.16;87.89
47757;SHT35;22147;52.388;13.390;2023-04-24T01:13:11;10.20;88.07
47757;SHT35;22147;52.388;13.390;2023-04-24T01:15:41;10.23;88.27
47757;SHT35;22147;52.388;13.390;2023-04-24T01:18:11;10.25;88.44
47757;SHT35;22147;52.388;13.390;2023-04-24T01:20:44;10.23;88.47
47757;SHT35;22147;52.388;13.390;2023-04-24T01:23:14;10.25;88.56
47757;SHT35;22147;52.388;13.390;2023-04-24T01:25:44;10.25;88.61
47757;SHT35;22147;52.388;13.390;2023-04-24T01:28:16;10.22;88.69
47757;SHT35;22147;52.388;13.390;2023-04-24T01:30:46;10.20;88.76
47757;SHT35;22147;52.388;13.390;2023-04-24T01:33:17;10.42;88.85
47757;SHT35;22147;52.388;13.390;2023-04-24T01:35:48;10.36;88.55
47757;SHT35;22147;52.388;13.390;2023-04-24T01:38:18;10.28;88.70
47757;SHT35;22147;52.388;13.390;2023-04-24T01:40:50;10.23;88.90
47757;SHT35;22147;52.388;13.390;2023-04-24T01:43:21;10.22;89.06
47757;SHT35;22147;52.388;13.390;2023-04-24T01:45:50;10.19;89.24
47757;SHT35;22147;52.388;13.390;2023-04-24T01:48:20;10.19;89.37
47757;SHT35;22147;52.388;13.390;2023-04-24T01:50:50;10.18;89.45
47757;SHT35;22147;52.388;13.390;2023-04-24T01:53:20;10.16;89.53
47757;SHT35;22147;52.388;13.390;2023-04-24T01:55:50;10.13;89.61
47757;SHT35;22147;52.388;13.390;2023-04-24T01:58:20;10.20;89.73
47757;SHT35;22147;52.388;13.390;2023-04-24T02:00:50;10.20;89.77
47757;SHT35;22147;52.388;13.390;2023-04-24T02:03:20;10.30;89.90
47757;SHT35;22147;52.388;13.390;2023-04-24T02:05:50;10.29;89.90
47757;SHT35;22147;52.388;13.390;2023-04-24T02:08:20;10.22;89.87
47757;SHT35;22147;52.388;13.390;2023-04-24T02:10:50;10.29;89.85
47757;SHT35;22147;52.388;13.390;2023-04-24T02:13:20;10.30;89.84
47757;SHT35;22147;52.388;13.390;2023-04-24T02:15:50;10.32;89.82
47757;SHT35;22147;52.388;13.390;2023-04-24T02:18:20;10.30;89.87
47757;SHT35;22147;52.388;13.390;2023-04-24T02:20:50;10.29;89.87
47757;SHT35;22147;52.388;13.390;2023-04-24T02:23:20;10.39;89.80
47757;SHT35;22147;52.388;13.390;2023-04-24T02:25:50;10.36;89.80
47757;SHT35;22147;52.388;13.390;2023-04-24T02:28:20;10.42;89.81
47757;SHT35;22147;52.388;13.390;2023-04-24T02:30:50;10.38;89.72
47757;SHT35;22147;52.388;13.390;2023-04-24T02:33:20;10.34;89.79
47757;SHT35;22147;52.388;13.390;2023-04-24T02:35:50;10.38;89.82
47757;SHT35;22147;52.388;13.390;2023-04-24T02:38:20;10.43;89.78
47757;SHT35;22147;52.388;13.390;2023-04-24T02:40:50;10.50;89.74
47757;SHT35;22147;52.388;13.390;2023-04-24T02:43:20;10.52;89.52
47757;SHT35;22147;52.388;13.390;2023-04-24T02:45:50;10.53;89.47
47757;SHT35;22147;52.388;13.390;2023-04-24T02:48:20;10.60;89.41
47757;SHT35;22147;52.388;13.390;2023-04-24T02:50:50;10.59;89.33
47757;SHT35;22147;52.388;13.390;2023-04-24T02:53:21;10.55;89.43
47757;SHT35;22147;52.388;13.390;2023-04-24T02:55:51;10.61;89.59
47757;SHT35;22147;52.388;13.390;2023-04-24T02:58:20;10.57;89.55
47757;SHT35;22147;52.388;13.390;2023-04-24T03:00:54;10.56;89.58
47757;SHT35;22147;52.388;13.390;2023-04-24T03:03:24;10.60;89.64
47757;SHT35;22147;52.388;13.390;2023-04-24T03:05:54;10.66;89.75
47757;SHT35;22147;52.388;13.390;2023-04-24T03:08:25;10.71;89.52
47757;SHT35;22147;52.388;13.390;2023-04-24T03:10:55;10.76;89.42
47757;SHT35;22147;52.388;13.390;2023-04-24T03:13:25;10.77;89.36
47757;SHT35;22147;52.388;13.390;2023-04-24T03:15:55;10.77;89.35
47757;SHT35;22147;52.388;13.390;2023-04-24T03:18:24;10.78;89.35
47757;SHT35;22147;52.388;13.390;2023-04-24T03:20:55;10.80;89.40
47757;SHT35;22147;52.388;13.390;2023-04-24T03:23:25;10.78;89.38
47757;SHT35;22147;52.388;13.390;2023-04-24T03:25:55;10.84;89.43
47757;SHT35;22147;52.388;13.390;2023-04-24T03:28:25;10.87;89.28
47757;SHT35;22147;52.388;13.390;2023-04-24T03:30:54;10.88;89.28
47757;SHT35;22147;52.388;13.390;2023-04-24T03:33:24;10.92;89.17
47757;SHT35;22147;52.388;13.390;2023-04-24T03:35:54;10.88;89.18
47757;SHT35;22147;52.388;13.390;2023-04-24T03:38:24;10.90;89.22
47757;SHT35;22147;52.388;13.390;2023-04-24T03:40:55;10.90;89.24
47757;SHT35;22147;52.388;13.390;2023-04-24T03:43:24;10.88;89.30
47757;SHT35;22147;52.388;13.390;2023-04-24T03:45:55;10.91;89.37
47757;SHT35;22147;52.388;13.390;2023-04-24T03:48:24;10.91;89.32
47757;SHT35;22147;52.388;13.390;2023-04-24T03:50:54;10.91;89.30
47757;SHT35;22147;52.388;13.390;2023-04-24T03:53:24;10.90;89.23
47757;SHT35;22147;52.388;13.390;2023-04-24T03:55:55;10.91;89.33
47757;SHT35;22147;52.388;13.390;2023-04-24T03:58:24;10.90;89.37
47757;SHT35;22147;52.388;13.390;2023-04-24T04:00:54;10.90;89.39
47757;SHT35;22147;52.388;13.390;2023-04-24T04:03:26;10.94;89.37
47757;SHT35;22147;52.388;13.390;2023-04-24T04:05:54;10.97;89.29
47757;SHT35;22147;52.388;13.390;2023-04-24T04:08:23;11.02;89.41
47757;SHT35;22147;52.388;13.390;2023-04-24T04:10:51;11.07;89.18
47757;SHT35;22147;52.388;13.390;2023-04-24T04:13:19;11.04;89.09
47757;SHT35;22147;52.388;13.390;2023-04-24T04:15:48;11.18;88.98
47757;SHT35;22147;52.388;13.390;2023-04-24T04:18:16;11.24;88.60
47757;SHT35;22147;52.388;13.390;2023-04-24T04:20:45;11.49;87.67
47757;SHT35;22147;52.388;13.390;2023-04-24T04:23:13;11.56;87.54
47757;SHT35;22147;52.388;13.390;2023-04-24T04:25:42;11.57;87.17
47757;SHT35;22147;52.388;13.390;2023-04-24T04:28:10;11.59;87.22
47757;SHT35;22147;52.388;13.390;2023-04-24T04:30:38;11.57;87.22
47757;SHT35;22147;52.388;13.390;2023-04-24T04:33:07;11.60;87.41
47757;SHT35;22147;52.388;13.390;2023-04-24T04:35:35;11.79;86.58
47757;SHT35;22147;52.388;13.390;2023-04-24T04:38:04;11.80;86.45
47757;SHT35;22147;52.388;13.390;2023-04-24T04:40:32;11.71;86.40
47757;SHT35;22147;52.388;13.390;2023-04-24T04:43:00;11.95;85.90
47757;SHT35;22147;52.388;13.390;2023-04-24T04:45:29;11.90;85.77
47757;SHT35;22147;52.388;13.390;2023-04-24T04:47:58;11.86;86.07
47757;SHT35;22147;52.388;13.390;2023-04-24T04:50:29;11.80;86.27
47757;SHT35;22147;52.388;13.390;2023-04-24T04:52:57;11.76;86.25
47757;SHT35;22147;52.388;13.390;2023-04-24T04:55:27;11.77;86.25
47757;SHT35;22147;52.388;13.390;2023-04-24T04:57:55;11.76;86.32
47757;SHT35;22147;52.388;13.390;2023-04-24T05:00:24;11.80;86.39
47757;SHT35;22147;52.388;13.390;2023-04-24T05:02:52;11.97;85.97
47757;SHT35;22147;52.388;13.390;2023-04-24T05:05:20;12.01;85.35
47757;SHT35;22147;52.388;13.390;2023-04-24T05:07:49;11.97;85.20
47757;SHT35;22147;52.388;13.390;2023-04-24T05:10:17;12.00;85.33
47757;SHT35;22147;52.388;13.390;2023-04-24T05:12:46;12.04;84.90
47757;SHT35;22147;52.388;13.390;2023-04-24T05:15:14;12.13;84.51
47757;SHT35;22147;52.388;13.390;2023-04-24T05:17:42;12.13;84.67
47757;SHT35;22147;52.388;13.390;2023-04-24T05:20:11;12.20;84.40
47757;SHT35;22147;52.388;13.390;2023-04-24T05:22:39;12.17;84.25
47757;SHT35;22147;52.388;13.390;2023-04-24T05:25:08;12.21;84.40
47757;SHT35;22147;52.388;13.390;2023-04-24T05:27:36;12.22;84.38
47757;SHT35;22147;52.388;13.390;2023-04-24T05:30:06;12.25;84.10
47757;SHT35;22147;52.388;13.390;2023-04-24T05:32:36;12.35;84.15
47757;SHT35;22147;52.388;13.390;2023-04-24T05:35:05;12.51;83.27
47757;SHT35;22147;52.388;13.390;2023-04-24T05:37:36;12.58;82.79
47757;SHT35;22147;52.388;13.390;2023-04-24T05:40:07;12.58;83.24
47757;SHT35;22147;52.388;13.390;2023-04-24T05:42:38;12.71;82.76
47757;SHT35;22147;52.388;13.390;2023-04-24T05:45:09;12.87;82.09
47757;SHT35;22147;52.388;13.390;2023-04-24T05:47:44;12.72;82.22
47757;SHT35;22147;52.388;13.390;2023-04-24T05:50:14;12.80;81.66
47757;SHT35;22147;52.388;13.390;2023-04-24T05:52:45;12.76;81.92
47757;SHT35;22147;52.388;13.390;2023-04-24T05:55:15;12.89;82.17
47757;SHT35;22147;52.388;13.390;2023-04-24T05:57:47;13.04;81.39
47757;SHT35;22147;52.388;13.390;2023-04-24T06:00:17;12.99;81.09
47757;SHT35;22147;52.388;13.390;2023-04-24T06:02:49;13.19;80.14
47757;SHT35;22147;52.388;13.390;2023-04-24T06:05:20;13.44;80.07
47757;SHT35;22147;52.388;13.390;2023-04-24T06:07:51;13.54;78.66
47757;SHT35;22147;52.388;13.390;2023-04-24T06:10:21;13.73;78.35
47757;SHT35;22147;52.388;13.390;2023-04-24T06:12:51;13.69;78.11
47757;SHT35;22147;52.388;13.390;2023-04-24T06:15:21;13.85;77.32
47757;SHT35;22147;52.388;13.390;2023-04-24T06:17:52;13.95;76.67
47757;SHT35;22147;52.388;13.390;2023-04-24T06:20:22;13.90;76.55
47757;SHT35;22147;52.388;13.390;2023-04-24T06:22:52;13.55;77.12
47757;SHT35;22147;52.388;13.390;2023-04-24T06:25:26;13.52;77.65
47757;SHT35;22147;52.388;13.390;2023-04-24T06:27:59;13.54;76.95
47757;SHT35;22147;52.388;13.390;2023-04-24T06:30:29;13.66;77.06
47757;SHT35;22147;52.388;13.390;2023-04-24T06:32:59;14.10;75.85
47757;SHT35;22147;52.388;13.390;2023-04-24T06:35:48;14.71;74.72
47757;SHT35;22147;52.388;13.390;2023-04-24T06:38:18;14.75;74.52
47757;SHT35;22147;52.388;13.390;2023-04-24T06:40:48;14.78;73.23
47757;SHT35;22147;52.388;13.390;2023-04-24T06:43:18;15.12;72.80
47757;SHT35;22147;52.388;13.390;2023-04-24T06:45:49;15.43;71.65
47757;SHT35;22147;52.388;13.390;2023-04-24T06:48:19;15.88;70.47
47757;SHT35;22147;52.388;13.390;2023-04-24T06:50:50;16.64;67.43
47757;SHT35;22147;52.388;13.390;2023-04-24T06:53:18;16.76;67.45
47757;SHT35;22147;52.388;13.390;2023-04-24T06:55:47;16.70;66.82
47757;SHT35;22147;52.388;13.390;2023-04-24T06:58:15;16.79;66.42
47757;SHT35;22147;52.388;13.390;2023-04-24T07:00:43;16.71;65.11
47757;SHT35;22147;52.388;13.390;2023-04-24T07:03:12;16.32;66.53
47757;SHT35;22147;52.388;13.390;2023-04-24T07:05:40;16.33;67.24
47757;SHT35;22147;52.388;13.390;2023-04-24T07:08:09;16.40;67.21
47757;SHT35;22147;52.388;13.390;2023-04-24T07:10:40;16.29;67.89
47757;SHT35;22147;52.388;13.390;2023-04-24T07:13:08;16.80;66.09
47757;SHT35;22147;52.388;13.390;2023-04-24T07:15:37;17.12;66.70
47757;SHT35;22147;52.388;13.390;2023-04-24T07:18:05;17.55;64.93
47757;SHT35;22147;52.388;13.390;2023-04-24T07:20:34;17.84;63.35
47757;SHT35;22147;52.388;13.390;2023-04-24T07:23:02;18.18;61.71
47757;SHT35;22147;52.388;13.390;2023-04-24T07:25:30;18.21;61.53
47757;SHT35;22147;52.388;13.390;2023-04-24T07:27:59;17.96;61.71
47757;SHT35;22147;52.388;13.390;2023-04-24T07:30:27;17.70;62.31
47757;SHT35;22147;52.388;13.390;2023-04-24T07:33:02;17.50;63.45
47757;SHT35;22147;52.388;13.390;2023-04-24T07:35:33;17.63;62.05
47757;SHT35;22147;52.388;13.390;2023-04-24T07:38:04;17.80;62.84
47757;SHT35;22147;52.388;13.390;2023-04-24T07:40:35;18.56;60.29
47757;SHT35;22147;52.388;13.390;2023-04-24T07:43:05;18.38;61.32
47757;SHT35;22147;52.388;13.390;2023-04-24T07:45:35;18.48;60.49
47757;SHT35;22147;52.388;13.390;2023-04-24T07:48:07;18.15;59.21
47757;SHT35;22147;52.388;13.390;2023-04-24T07:50:39;17.93;60.03
47757;SHT35;22147;52.388;13.390;2023-04-24T07:53:09;18.61;59.74
47757;SHT35;22147;52.388;13.390;2023-04-24T07:55:39;18.34;58.42
47757;SHT35;22147;52.388;13.390;2023-04-24T07:58:10;18.42;58.48
47757;SHT35;22147;52.388;13.390;2023-04-24T08:00:40;18.51;59.32
47757;SHT35;22147;52.388;13.390;2023-04-24T08:03:10;18.84;55.55
47757;SHT35;22147;52.388;13.390;2023-04-24T08:05:41;18.31;56.48
47757;SHT35;22147;52.388;13.390;2023-04-24T08:08:13;18.18;57.01
47757;SHT35;22147;52.388;13.390;2023-04-24T08:10:43;18.34;57.51
47757;SHT35;22147;52.388;13.390;2023-04-24T08:13:11;18.22;55.91
47757;SHT35;22147;52.388;13.390;2023-04-24T08:15:40;17.93;57.24
47757;SHT35;22147;52.388;13.390;2023-04-24T08:18:08;18.27;57.37
47757;SHT35;22147;52.388;13.390;2023-04-24T08:20:40;18.22;57.14
47757;SHT35;22147;52.388;13.390;2023-04-24T08:23:08;19.04;54.04
47757;SHT35;22147;52.388;13.390;2023-04-24T08:25:37;19.21;53.59
47757;SHT35;22147;52.388;13.390;2023-04-24T08:28:09;18.96;54.11
47757;SHT35;22147;52.388;13.390;2023-04-24T08:30:40;19.17;55.56
47757;SHT35;22147;52.388;13.390;2023-04-24T08:33:10;18.82;53.52
47757;SHT35;22147;52.388;13.390;2023-04-24T08:35:41;18.82;56.57
47757;SHT35;22147;52.388;13.390;2023-04-24T08:38:15;18.79;55.19
47757;SHT35;22147;52.388;13.390;2023-04-24T08:40:47;18.48;55.89
47757;SHT35;22147;52.388;13.390;2023-04-24T08:43:22;18.82;56.61
47757;SHT35;22147;52.388;13.390;2023-04-24T08:45:57;18.96;59.36
47757;SHT35;22147;52.388;13.390;2023-04-24T08:48:28;19.68;55.81
47757;SHT35;22147;52.388;13.390;2023-04-24T08:51:05;19.50;54.92
47757;SHT35;22147;52.388;13.390;2023-04-24T08:53:37;19.24;54.27
47757;SHT35;22147;52.388;13.390;2023-04-24T08:56:07;19.14;55.34
47757;SHT35;22147;52.388;13.390;2023-04-24T08:58:39;18.34;57.11
47757;SHT35;22147;52.388;13.390;2023-04-24T09:01:12;18.80;57.42
47757;SHT35;22147;52.388;13.390;2023-04-24T09:03:44;19.10;55.56
47757;SHT35;22147;52.388;13.390;2023-04-24T09:06:17;18.89;57.74
47757;SHT35;22147;52.388;13.390;2023-04-24T09:08:54;19.15;55.07
47757;SHT35;22147;52.388;13.390;2023-04-24T09:11:27;18.72;56.56
47757;SHT35;22147;52.388;13.390;2023-04-24T09:13:59;18.21;59.04
47757;SHT35;22147;52.388;13.390;2023-04-24T09:16:31;18.11;58.56
47757;SHT35;22147;52.388;13.390;2023-04-24T09:19:05;17.53;60.51
47757;SHT35;22147;52.388;13.390;2023-04-24T09:21:35;17.09;61.65
47757;SHT35;22147;52.388;13.390;2023-04-24T09:24:19;17.18;62.53
47757;SHT35;22147;52.388;13.390;2023-04-24T09:26:58;17.08;62.15
47757;SHT35;22147;52.388;13.390;2023-04-24T09:29:29;17.12;61.72
47757;SHT35;22147;52.388;13.390;2023-04-24T09:32:22;17.39;61.85
47757;SHT35;22147;52.388;13.390;2023-04-24T09:35:11;17.96;58.21
47757;SHT35;22147;52.388;13.390;2023-04-24T09:37:47;17.74;59.05
47757;SHT35;22147;52.388;13.390;2023-04-24T09:40:22;17.91;57.51
47757;SHT35;22147;52.388;13.390;2023-04-24T09:42:56;17.73;58.82
47757;SHT35;22147;52.388;13.390;2023-04-24T09:45:40;17.63;59.71
47757;SHT35;22147;52.388;13.390;2023-04-24T09:48:11;17.22;61.41
47757;SHT35;22147;52.388;13.390;2023-04-24T09:50:46;17.48;58.68
47757;SHT35;22147;52.388;13.390;2023-04-24T09:53:25;17.49;60.07
47757;SHT35;22147;52.388;13.390;2023-04-24T09:56:02;17.80;58.43
47757;SHT35;22147;52.388;13.390;2023-04-24T09:58:36;17.94;58.98
47757;SHT35;22147;52.388;13.390;2023-04-24T10:01:06;18.13;58.90
47757;SHT35;22147;52.388;13.390;2023-04-24T10:03:36;18.52;55.61
47757;SHT35;22147;52.388;13.390;2023-04-24T10:06:07;18.53;56.16
47757;SHT35;22147;52.388;13.390;2023-04-24T10:08:38;18.77;55.67
47757;SHT35;22147;52.388;13.390;2023-04-24T10:11:08;19.20;55.78
47757;SHT35;22147;52.388;13.390;2023-04-24T10:13:41;19.73;52.78
47757;SHT35;22147;52.388;13.390;2023-04-24T10:16:12;19.89;52.80
47757;SHT35;22147;52.388;13.390;2023-04-24T10:18:43;19.99;51.80
47757;SHT35;22147;52.388;13.390;2023-04-24T10:21:16;19.62;53.77
47757;SHT35;22147;52.388;13.390;2023-04-24T10:23:49;20.26;53.64
47757;SHT35;22147;52.388;13.390;2023-04-24T10:26:22;20.89;50.45
47757;SHT35;22147;52.388;13.390;2023-04-24T10:28:57;20.41;51.38
47757;SHT35;22147;52.388;13.390;2023-04-24T10:31:32;19.37;52.33
47757;SHT35;22147;52.388;13.390;2023-04-24T10:34:09;18.89;54.71
47757;SHT35;22147;52.388;13.390;2023-04-24T10:36:48;18.68;55.11
47757;SHT35;22147;52.388;13.390;2023-04-24T10:39:20;18.44;54.98
47757;SHT35;22147;52.388;13.390;2023-04-24T10:41:57;17.71;58.28
47757;SHT35;22147;52.388;13.390;2023-04-24T10:44:36;17.53;58.03
47757;SHT35;22147;52.388;13.390;2023-04-24T10:47:13;17.38;58.40
47757;SHT35;22147;52.388;13.390;2023-04-24T10:49:45;17.42;59.40
47757;SHT35;22147;52.388;13.390;2023-04-24T10:52:15;17.50;59.84
47757;SHT35;22147;52.388;13.390;2023-04-24T10:54:47;18.14;57.46
47757;SHT35;22147;52.388;13.390;2023-04-24T11:00:21;19.69;53.96
47757;SHT35;22147;52.388;13.390;2023-04-24T11:02:53;19.98;53.14
47757;SHT35;22147;52.388;13.390;2023-04-24T11:05:53;19.55;53.22
47757;SHT35;22147;52.388;13.390;2023-04-24T11:08:43;18.93;53.72
47757;SHT35;22147;52.388;13.390;2023-04-24T11:11:18;18.41;55.13
47757;SHT35;22147;52.388;13.390;2023-04-24T11:16:37;17.57;57.47
47757;SHT35;22147;52.388;13.390;2023-04-24T11:19:26;17.34;61.48
47757;SHT35;22147;52.388;13.390;2023-04-24T11:22:14;17.07;67.97
47757;SHT35;22147;52.388;13.390;2023-04-24T11:27:20;16.28;73.45
47757;SHT35;22147;52.388;13.390;2023-04-24T11:32:37;16.60;74.26
47757;SHT35;22147;52.388;13.390;2023-04-24T11:35:21;17.12;72.17
47757;SHT35;22147;52.388;13.390;2023-04-24T11:37:54;16.70;74.35
47757;SHT35;22147;52.388;13.390;2023-04-24T11:40:27;17.27;73.01
47757;SHT35;22147;52.388;13.390;2023-04-24T11:43:00;17.91;73.35
47757;SHT35;22147;52.388;13.390;2023-04-24T11:45:31;18.35;69.18
47757;SHT35;22147;52.388;13.390;2023-04-24T11:47:59;18.56;66.79
47757;SHT35;22147;52.388;13.390;2023-04-24T11:50:29;17.93;68.37
47757;SHT35;22147;52.388;13.390;2023-04-24T11:52:59;17.45;70.72
47757;SHT35;22147;52.388;13.390;2023-04-24T11:55:30;18.10;70.33
47757;SHT35;22147;52.388;13.390;2023-04-24T11:58:00;18.55;64.72
47757;SHT35;22147;52.388;13.390;2023-04-24T12:00:32;19.08;65.01
47757;SHT35;22147;52.388;13.390;2023-04-24T12:03:11;18.69;65.22
47757;SHT35;22147;52.388;13.390;2023-04-24T12:05:42;19.21;64.32
47757;SHT35;22147;52.388;13.390;2023-04-24T12:08:28;19.25;60.61
47757;SHT35;22147;52.388;13.390;2023-04-24T12:11:03;19.04;63.00
47757;SHT35;22147;52.388;13.390;2023-04-24T12:13:35;18.72;63.00
47757;SHT35;22147;52.388;13.390;2023-04-24T12:16:06;18.80;61.09
47757;SHT35;22147;52.388;13.390;2023-04-24T12:18:43;18.57;59.30
47757;SHT35;22147;52.388;13.390;2023-04-24T12:21:22;18.68;58.24
47757;SHT35;22147;52.388;13.390;2023-04-24T12:23:56;18.38;59.71
47757;SHT35;22147;52.388;13.390;2023-04-24T12:26:27;17.77;56.40
47757;SHT35;22147;52.388;13.390;2023-04-24T12:29:03;17.32;58.06
47757;SHT35;22147;52.388;13.390;2023-04-24T12:31:34;17.70;54.69
47757;SHT35;22147;52.388;13.390;2023-04-24T12:34:22;17.08;48.40
47757;SHT35;22147;52.388;13.390;2023-04-24T12:36:52;17.45;49.12
47757;SHT35;22147;52.388;13.390;2023-04-24T12:39:22;17.42;48.97
47757;SHT35;22147;52.388;13.390;2023-04-24T12:41:58;17.50;51.40
47757;SHT35;22147;52.388;13.390;2023-04-24T12:44:34;17.57;50.48
47757;SHT35;22147;52.388;13.390;2023-04-24T12:47:05;17.66;50.00
47757;SHT35;22147;52.388;13.390;2023-04-24T12:49:35;18.38;48.59
47757;SHT35;22147;52.388;13.390;2023-04-24T12:52:05;18.84;47.98
47757;SHT35;22147;52.388;13.390;2023-04-24T12:54:35;18.82;46.56
47757;SHT35;22147;52.388;13.390;2023-04-24T12:57:05;18.65;46.41
47757;SHT35;22147;52.388;13.390;2023-04-24T12:59:36;18.20;43.79
47757;SHT35;22147;52.388;13.390;2023-04-24T13:02:07;18.22;45.08
47757;SHT35;22147;52.388;13.390;2023-04-24T13:04:39;19.13;44.68
47757;SHT35;22147;52.388;13.390;2023-04-24T13:07:09;19.37;42.94
47757;SHT35;22147;52.388;13.390;2023-04-24T13:09:40;19.66;43.04
47757;SHT35;22147;52.388;13.390;2023-04-24T13:12:13;19.62;42.30
47757;SHT35;22147;52.388;13.390;2023-04-24T13:14:48;19.38;42.49
47757;SHT35;22147;52.388;13.390;2023-04-24T13:17:18;19.62;43.10
47757;SHT35;22147;52.388;13.390;2023-04-24T13:19:51;19.75;41.89
47757;SHT35;22147;52.388;13.390;2023-04-24T13:22:20;19.81;41.23
47757;SHT35;22147;52.388;13.390;2023-04-24T13:24:49;20.10;41.38
47757;SHT35;22147;52.388;13.390;2023-04-24T13:27:18;20.38;40.93
47757;SHT35;22147;52.388;13.390;2023-04-24T13:29:46;20.02;41.64
47757;SHT35;22147;52.388;13.390;2023-04-24T13:32:14;19.83;41.70
47757;SHT35;22147;52.388;13.390;2023-04-24T13:34:43;19.89;41.18
47757;SHT35;22147;52.388;13.390;2023-04-24T13:37:11;20.17;39.98
47757;SHT35;22147;52.388;13.390;2023-04-24T13:39:40;20.29;41.11
47757;SHT35;22147;52.388;13.390;2023-04-24T13:42:17;20.12;38.82
47757;SHT35;22147;52.388;13.390;2023-04-24T13:44:48;20.12;40.13
47757;SHT35;22147;52.388;13.390;2023-04-24T13:47:18;19.81;38.46
47757;SHT35;22147;52.388;13.390;2023-04-24T13:49:48;19.65;39.54
47757;SHT35;22147;52.388;13.390;2023-04-24T13:52:18;19.78;42.67
47757;SHT35;22147;52.388;13.390;2023-04-24T13:54:48;19.31;42.41
47757;SHT35;22147;52.388;13.390;2023-04-24T13:57:19;19.06;43.31
47757;SHT35;22147;52.388;13.390;2023-04-24T13:59:49;19.59;44.66
47757;SHT35;22147;52.388;13.390;2023-04-24T14:02:19;19.50;42.53
47757;SHT35;22147;52.388;13.390;2023-04-24T14:04:49;19.45;41.60
47757;SHT35;22147;52.388;13.390;2023-04-24T14:07:20;20.27;40.47
47757;SHT35;22147;52.388;13.390;2023-04-24T14:09:50;20.87;39.83
47757;SHT35;22147;52.388;13.390;2023-04-24T14:12:21;21.66;38.56
47757;SHT35;22147;52.388;13.390;2023-04-24T14:14:51;21.14;37.15
47757;SHT35;22147;52.388;13.390;2023-04-24T14:17:21;20.55;39.37
47757;SHT35;22147;52.388;13.390;2023-04-24T14:19:52;19.92;38.05
47757;SHT35;22147;52.388;13.390;2023-04-24T14:22:26;20.17;38.38
47757;SHT35;22147;52.388;13.390;2023-04-24T14:24:56;20.98;36.92
47757;SHT35;22147;52.388;13.390;2023-04-24T14:27:26;20.87;38.10
47757;SHT35;22147;52.388;13.390;2023-04-24T14:29:56;21.08;38.52
47757;SHT35;22147;52.388;13.390;2023-04-24T14:32:27;20.92;39.45
47757;SHT35;22147;52.388;13.390;2023-04-24T14:34:57;20.79;38.45
47757;SHT35;22147;52.388;13.390;2023-04-24T14:37:27;20.75;37.61
47757;SHT35;22147;52.388;13.390;2023-04-24T14:39:57;20.44;38.24
47757;SHT35;22147;52.388;13.390;2023-04-24T14:42:47;19.54;40.16
47757;SHT35;22147;52.388;13.390;2023-04-24T14:45:19;20.40;40.35
47757;SHT35;22147;52.388;13.390;2023-04-24T14:47:49;19.96;40.12
47757;SHT35;22147;52.388;13.390;2023-04-24T14:50:20;20.63;40.04
47757;SHT35;22147;52.388;13.390;2023-04-24T14:52:55;20.31;38.09
47757;SHT35;22147;52.388;13.390;2023-04-24T14:55:25;19.47;40.33
47757;SHT35;22147;52.388;13.390;2023-04-24T14:57:53;18.38;43.47
47757;SHT35;22147;52.388;13.390;2023-04-24T15:00:22;18.06;44.48
47757;SHT35;22147;52.388;13.390;2023-04-24T15:02:53;17.83;44.07
47757;SHT35;22147;52.388;13.390;2023-04-24T15:05:25;18.18;44.89
47757;SHT35;22147;52.388;13.390;2023-04-24T15:07:56;19.41;42.26
47757;SHT35;22147;52.388;13.390;2023-04-24T15:10:26;19.83;39.27
47757;SHT35;22147;52.388;13.390;2023-04-24T15:12:56;19.89;39.80
47757;SHT35;22147;52.388;13.390;2023-04-24T15:15:26;19.32;38.25
47757;SHT35;22147;52.388;13.390;2023-04-24T15:17:56;19.71;39.66
47757;SHT35;22147;52.388;13.390;2023-04-24T15:20:27;19.99;39.50
47757;SHT35;22147;52.388;13.390;2023-04-24T15:22:57;19.75;40.15
47757;SHT35;22147;52.388;13.390;2023-04-24T15:25:30;18.75;41.25
47757;SHT35;22147;52.388;13.390;2023-04-24T15:28:00;18.25;41.39
47757;SHT35;22147;52.388;13.390;2023-04-24T15:30:31;17.32;44.00
47757;SHT35;22147;52.388;13.390;2023-04-24T15:33:01;17.42;44.51
47757;SHT35;22147;52.388;13.390;2023-04-24T15:35:31;17.11;45.16
47757;SHT35;22147;52.388;13.390;2023-04-24T15:38:02;16.97;45.86
47757;SHT35;22147;52.388;13.390;2023-04-24T15:40:33;16.60;45.23
47757;SHT35;22147;52.388;13.390;2023-04-24T15:43:03;16.21;46.45
47757;SHT35;22147;52.388;13.390;2023-04-24T15:45:34;16.49;46.25
47757;SHT35;22147;52.388;13.390;2023-04-24T15:48:04;16.15;46.71
47757;SHT35;22147;52.388;13.390;2023-04-24T15:50:35;16.12;47.11